Boyd Deep Canyon Reserve, California Weather observations

Data are for 10 minute period ending at time listed.
 Day   Time   Solar   Ave.   Ave.  Ave.  Vector  Max.   Baro.   Total    
  of    of     Rad.   Air    Rel.  Wind   Wind   Wind  Press.  Precip.   
Year   Day            Temp.  Hum.  Speed  Dir.   Gust                    
2014   (PST)  Kw/m2    F      %     mph   deg.    mph    mb.     in.     
-------------------------------------------------------------------------
 107   13:30   0.64   80.4    29    6.1    60    11.5   975.1    0.00 
 107   13:40   0.91   81.1    29    7.6    52    12.9   975.0    0.00 
 107   13:50   0.83   80.5    30    7.0    77    13.6   974.8    0.00 
 107   14:00   0.72   80.3    30    5.8    86    12.0   974.6    0.00 
 107   14:10   0.40   80.8    30    6.8    75    12.3   974.5    0.00 
 107   14:20   0.34   79.3    32    6.6    81    11.1   974.4    0.00 
 107   14:30   0.40   80.2    31    7.6    77    12.4   974.1    0.00 
 107   14:40   0.34   79.9    31    5.9    84    12.3   974.0    0.00 
 107   14:50   0.30   79.8    30    7.1    73    14.2   973.8    0.00 
 107   15:00   0.48   79.8    30    7.3    74    13.3   973.8    0.00 
 107   15:10   0.55   80.7    30    5.4    65    11.1   973.7    0.00 
 107   15:20   0.63   80.6    31    7.6    81    11.7   973.6    0.00 
 107   15:30   0.60   80.5    31    7.7    79    10.4   973.6    0.00 
 107   15:40   0.41   80.9    30    7.5    73    14.0   973.5    0.00 
 107   15:50   0.37   80.5    30    7.2    72    14.1   973.4    0.00 
 107   16:00   0.24   79.8    29    7.7    82    13.4   973.4    0.00 
 107   16:10   0.25   80.2    28    7.7    74    14.2   973.4    0.00 
 107   16:20   0.19   79.8    29    8.2    64    14.0   973.3    0.00 
 107   16:30   0.17   79.8    29    7.5    62    12.1   973.3    0.00 
 107   16:40   0.15   79.8    28    7.8    61    12.3   973.3    0.00 
 107   16:50   0.14   79.6    28    6.0    62     9.9   973.4    0.00 
 107   17:00   0.14   79.4    29    5.6    84    10.2   973.4    0.00 
 107   17:10   0.16   79.6    29    5.5    77     8.5   973.2    0.00 
 107   17:20   0.08   79.2    29    5.8    84     8.7   973.2    0.00 
 107   17:30   0.06   79.2    28    5.8    66     9.1   973.2    0.00 
 107   17:40   0.04   79.0    29    4.4    65     8.6   973.2    0.00 
 107   17:50   0.03   78.6    31    6.1    82    10.4   973.2    0.00 
 107   18:00   0.02   78.3    32    5.3    74     9.7   973.3    0.00 
 107   18:10   0.01   78.2    32    5.8    87    10.0   973.5    0.00 
 107   18:20   0.00   78.1    31    5.4    82     9.4   973.4    0.00 
 107   18:30   0.00   78.0    30    4.8    83     8.6   973.6    0.00 
 107   18:40   0.00   77.9    30    4.7    69     7.4   973.6    0.00 
 107   18:50   0.00   77.6    32    3.9    83     7.5   973.6    0.00 
 107   19:00   0.00   77.5    36    5.2    73     9.3   973.8    0.00 
 107   19:10   0.00   77.3    39    5.3    87     9.6   974.0    0.00 
 107   19:20   0.00   77.2    39    4.2    69     7.5   973.9    0.00 
 107   19:30   0.00   77.1    39    4.4    84     8.4   974.1    0.00 
 107   19:40   0.00   77.1    38    4.4    79     7.7   974.3    0.00 
 107   19:50   0.00   76.9    37    4.2    78     6.6   974.5    0.00 
 107   20:00   0.00   76.6    36    4.2    87     7.3   974.5    0.00 
 107   20:10   0.00   76.3    36    2.3    97     5.1   974.5    0.00 
 107   20:20   0.00   76.2    36    1.3    85     3.6   974.3    0.00 
 107   20:30   0.00   76.0    37    1.1   259     3.5   974.5    0.00 
 107   20:40   0.00   76.1    37    2.9   303     5.6   974.5    0.00 
 107   20:50   0.00   76.2    36    3.3   346     5.6   974.4    0.00 
 107   21:00   0.00   76.0    36    1.9     7     3.4   974.5    0.00 
 107   21:10   0.00   75.4    37    1.3    34     3.2   974.3    0.00 
 107   21:20   0.00   75.0    38    1.2    66     3.7   974.3    0.00 
 107   21:30   0.00   74.8    40    3.3    66     5.0   974.2    0.00 
 107   21:40   0.00   74.9    40    1.3   119     3.3   974.1    0.00 
 107   21:50   0.00   74.0    44    4.0    33     6.2   974.1    0.00 
 107   22:00   0.00   73.4    45    3.4    65     4.7   974.2    0.00 
 107   22:10   0.00   73.6    45    3.3    36     6.1   974.2    0.00 
 107   22:20   0.00   73.1    46    2.7    57     4.8   974.2    0.00 
 107   22:30   0.00   72.9    45    2.5   215     3.3   974.3    0.00 
 107   22:40   0.00   72.8    45    2.3   204     3.1   974.3    0.00 
 107   22:50   0.00   72.5    45    2.3   351     4.8   974.4    0.00 
 107   23:00   0.00   71.8    46    2.1    16     4.3   974.5    0.00 
 107   23:10   0.00   71.6    44    5.3    15     8.8   974.4    0.00 
 107   23:20   0.00   70.9    45    6.1    26     9.6   974.6    0.00 
 107   23:30   0.00   70.2    46    3.7    46     5.7   974.7    0.00 
 107   23:40   0.00   69.8    47    2.0    49     3.1   974.6    0.00 
 107   23:50   0.00   69.6    47    1.2    57     2.7   974.6    0.00 
 108    0:00   0.00   69.6    48    0.6     0     1.4   974.5    0.00 
 108    0:10   0.00   69.5    49    0.0     0     0.0   974.4    0.00 
 108    0:20   0.00   69.2    48    0.7     0     1.2   974.3    0.00 
 108    0:30   0.00   69.1    49    1.7     7     7.0   974.3    0.00 
 108    0:40   0.00   67.4    56    4.3     4     7.4   974.3    0.00 
 108    0:50   0.00   66.4    58    2.2    60     4.8   974.2    0.00 
 108    1:00   0.00   66.3    59    0.5   223     1.9   974.3    0.00 
 108    1:10   0.00   66.4    58    0.9   114     1.8   974.2    0.00 
 108    1:20   0.00   66.7    58    0.4   206     1.9   974.1    0.00 
 108    1:30   0.00   66.8    57    2.1   211     3.4   974.1    0.00 
 108    1:40   0.00   67.2    56    2.1   197     3.3   974.1    0.00 
 108    1:50   0.00   66.7    58    4.0   346     9.1   974.1    0.00 
 108    2:00   0.00   65.0    63    2.6    17     4.2   974.3    0.00 
 108    2:10   0.00   64.7    63    1.7    52     2.9   974.1    0.00 
 108    2:20   0.00   64.6    64    1.8    55     2.5   974.1    0.00 
 108    2:30   0.00   64.7    63    0.9   115     2.9   974.2    0.00 
 108    2:40   0.00   64.9    63    0.2   193     1.2   974.2    0.00 
 108    2:50   0.00   65.1    62    1.1   203     2.6   974.2    0.00 
 108    3:00   0.00   65.4    61    0.8   353     3.2   974.3    0.00 
 108    3:10   0.00   65.0    62    3.1    23     4.2   974.2    0.00 
 108    3:20   0.00   64.1    64    2.3    22     3.7   974.1    0.00 
 108    3:30   0.00   63.9    65    0.5     4     2.0   974.0    0.00 
 108    3:40   0.00   64.1    64    1.8   222     4.3   974.0    0.00 
 108    3:50   0.00   64.8    62    1.8   199     2.4   973.9    0.00 
 108    4:00   0.00   65.4    60    2.1   215     2.9   974.0    0.00 
 108    4:10   0.00   65.8    58    1.4   139     2.0   974.0    0.00 
 108    4:20   0.00   65.5    59    1.2   356     2.2   974.0    0.00 
 108    4:30   0.00   65.4    60    1.6    30     3.4   974.0    0.00 
 108    4:40   0.00   64.5    62    1.7    51     3.2   974.1    0.00 
 108    4:50   0.00   64.4    61    1.1     8     2.9   974.1    0.00 
 108    5:00   0.00   64.7    61    1.7    24     4.2   974.0    0.00 
 108    5:10   0.00   64.0    63    1.8    51     3.4   973.9    0.00 
 108    5:20   0.00   64.0    63    0.9    93     2.4   974.0    0.00 
 108    5:30   0.00   64.4    62    1.1   116     3.9   973.9    0.00 
 108    5:40   0.01   65.7    56    2.7    53     4.0   974.1    0.00 
 108    5:50   0.02   65.5    57    2.3    62     4.2   974.1    0.00 
 108    6:00   0.04   65.8    56    1.8   300     3.0   974.1    0.00 
 108    6:10   0.05   65.9    56    1.9    52     3.5   974.3    0.00 
 108    6:20   0.07   66.0    56    1.8    66     2.9   974.5    0.00 
 108    6:30   0.08   66.4    55    1.9    48     3.4   974.7    0.00 
 108    6:40   0.08   66.7    54    1.7   329     2.7   974.9    0.00 
 108    6:50   0.08   67.2    52    3.1    51     6.6   975.1    0.00 
 108    7:00   0.07   67.5    49    5.6    58     8.4   975.4    0.00 
 108    7:10   0.08   67.8    48    4.3    66     7.8   975.4    0.00 
 108    7:20   0.11   68.2    47    2.4    73     4.6   975.4    0.00 
 108    7:30   0.14   68.9    46    1.9    30     5.9   975.5    0.00 
 108    7:40   0.15   68.9    47    6.0    35     8.3   975.6    0.00 
 108    7:50   0.20   67.8    54    6.3   359     8.6   975.7    0.00 
 108    8:00   0.21   67.9    53    5.9   350     8.6   975.8    0.00 
 108    8:10   0.25   67.9    54    5.3   351     7.5   976.0    0.00 
 108    8:20   0.41   67.8    56    6.3   350     8.6   976.1    0.00 
 108    8:30   0.34   68.1    55    5.3     1     7.7   976.2    0.00 
 108    8:40   0.45   68.5    52    4.2   354     6.4   976.4    0.00 
 108    8:50   0.61   69.6    48    4.7     1     7.2   976.5    0.00 
 108    9:00   0.62   70.2    47    4.3   348     6.9   976.6    0.00 
 108    9:10   0.63   71.0    45    4.1     3     6.5   976.6    0.00 
 108    9:20   0.73   72.0    43    4.6    15     7.2   976.5    0.00 
 108    9:30   0.71   72.4    41    3.2     4     8.4   976.5    0.00 
 108    9:40   0.67   72.3    41    3.9   332     8.7   976.5    0.00 
 108    9:50   0.69   73.0    40    4.2    16     7.7   976.5    0.00 
 108   10:00   0.63   73.4    38    4.6    24     8.7   976.5    0.00 
 108   10:10   0.74   73.4    38    4.4    15    12.3   976.4    0.00 
 108   10:20   0.85   74.0    36    1.8    12     6.2   976.4    0.00 
 108   10:30   0.85   75.7    34    4.1     8     9.0   976.1    0.00 
 108   10:40   0.97   74.7    34    5.0    18     8.0   976.1    0.00 
 108   10:50   1.00   75.8    33    3.5   347     7.5   976.0    0.00 
 108   11:00   0.99   75.7    34    4.3   342     8.8   975.9    0.00 
 108   11:10   1.01   76.3    33    2.7    19     9.5   975.8    0.00 
 108   11:20   0.88   77.2    32    5.6   352    11.1   975.7    0.00 
 108   11:30   0.94   76.3    32    4.0   332    10.2   975.6    0.00 
 108   11:40   0.95   77.3    31    6.3    12    10.7   975.6    0.00 
 108   11:50   0.97   77.2    31    4.9     2    10.7   975.6    0.00 
 108   12:00   0.80   78.0    30    5.8    19    11.6   975.5    0.00 
 108   12:10   0.61   77.5    31    3.2   345     8.8   975.5    0.00 
 108   12:20   0.46   77.1    32    3.8   357     9.5   975.4    0.00 
 108   12:30   0.52   77.4    31    4.2    26    10.2   975.2    0.00 
 108   12:40   0.62   77.7    31    6.3     6    13.7   975.1    0.00 
 108   12:50   0.70   77.6    31    3.0   348     7.5   975.1    0.00 
 108   13:00   0.65   78.5    30    2.8   324     6.6   975.0    0.00 
 108   13:10   0.55   78.9    30    5.9   351     9.4   974.8    0.00 
 108   13:20   0.64   78.5    30    3.3    26     7.9   974.7    0.00 

Return to Boyd Deep Canyon Reserve graphs page.


Western Regional Climate Center,wrcc@dri.edu